RJCC/CTS METAR and TAF weather

Enter ICAO airport designator
Station Type Date Time Source
RJCC METAR 2019/08/23 15:00 UTC NOAA

RJCC 231500Z 12006KT 2500 -SHRA BR FEW002 BKN007 18/18 Q1001 RMK 2ST002 7ST007 A2958


Station Type Date Time Source
RJCC Decoded METAR 2019/08/23 15:00 UTC NOAA

Station name not available
Aug 23, 2019 - 11:00 AM EDT / 2019.08.23 1500 UTC
Wind: from the ESE (120 degrees) at 7 MPH (6 KT):0
Visibility: 1 mile(s):0
Sky conditions: mostly cloudy
Weather: light rain showers; mist
Temperature: 64 F (18 C)
Dew Point: 64 F (18 C)
Relative Humidity: 100%
Pressure (altimeter): 29.56 in. Hg (1001 hPa)
ob: RJCC 231500Z 12006KT 2500 -SHRA BR FEW002 BKN007 18/18 Q1001 RMK 2ST002 7ST007 A2958
cycle: 15

Station Type Date Time Source
RJCC TAF 2019/08/23 12:30 UTC NOAA

TAF RJCC 231105Z 2312/2418 34005KT 9999 FEW003 BKN015
TEMPO 2312/2315 2000 -SHRA BR FEW003 BKN005
TEMPO 2315/2318 1500 SHRA BR FEW001 BKN003 FEW025CB
TEMPO 2318/2321 1500 -SHRA BR FEW001 BKN003
BECMG 2322/2400 20005KT
TEMPO 2403/2409 3000 TSRA BR BKN008 BKN025 FEW025CB

Example: see airport list